createdAt,value
2018-09-15T00:01:58.902Z,76.45
2018-09-15T00:04:25.892Z,76.30
2018-09-15T00:06:53.139Z,76.61
2018-09-15T00:09:20.108Z,76.98
2018-09-15T00:11:47.214Z,76.83
2018-09-15T00:14:14.209Z,76.75
2018-09-15T00:16:41.190Z,77.38
2018-09-15T00:19:08.553Z,77.11
2018-09-15T00:21:35.637Z,77.69
2018-09-15T00:24:02.632Z,77.58
2018-09-15T00:26:30.144Z,77.77
2018-09-15T00:28:57.112Z,77.74
2018-09-15T00:31:24.101Z,78.27
2018-09-15T00:33:51.556Z,78.93
2018-09-15T00:36:18.714Z,78.86
2018-09-15T00:38:45.724Z,79.86
2018-09-15T00:41:12.713Z,80.04
2018-09-15T00:43:39.767Z,79.59
2018-09-15T00:46:07.038Z,79.86
2018-09-15T00:48:34.021Z,80.28
2018-09-15T00:51:01.019Z,80.34
2018-09-15T00:53:28.025Z,80.40
2018-09-15T00:55:55.083Z,80.93
2018-09-15T00:58:22.063Z,81.12
2018-09-15T01:00:49.053Z,81.38
2018-09-15T01:03:16.127Z,81.30
2018-09-15T01:05:50.183Z,81.70
2018-09-15T01:08:17.180Z,82.05
2018-09-15T01:10:44.151Z,82.34
2018-09-15T01:13:11.163Z,82.74
2018-09-15T01:15:38.127Z,82.75
2018-09-15T01:18:05.112Z,82.93
2018-09-15T01:20:32.148Z,83.32
2018-09-15T01:22:59.136Z,83.30
2018-09-15T01:25:26.112Z,82.96
2018-09-15T01:27:53.107Z,83.07
2018-09-15T01:30:20.435Z,83.14
2018-09-15T01:32:47.399Z,83.07
2018-09-15T01:35:14.367Z,83.20
2018-09-15T01:37:41.339Z,83.25
2018-09-15T01:40:08.388Z,83.33
2018-09-15T01:42:35.387Z,83.70
2018-09-15T01:45:02.457Z,83.99
2018-09-15T01:47:29.595Z,84.21
2018-09-15T01:49:56.686Z,84.24
2018-09-15T01:52:23.705Z,84.45
2018-09-15T01:54:50.671Z,84.75
2018-09-15T01:57:17.637Z,84.76
2018-09-15T01:59:44.784Z,84.93
2018-09-15T02:02:11.836Z,84.84
2018-09-15T02:04:38.820Z,84.70
2018-09-15T02:07:05.843Z,85.05
2018-09-15T02:09:32.860Z,85.06
2018-09-15T02:11:59.939Z,85.21
2018-09-15T02:14:26.915Z,85.47
2018-09-15T02:16:53.898Z,85.23
2018-09-15T02:19:20.880Z,85.28
2018-09-15T02:21:47.843Z,85.46
2018-09-15T02:24:15.167Z,85.45
2018-09-15T02:26:42.230Z,85.56
2018-09-15T02:29:09.192Z,85.56
2018-09-15T02:31:36.183Z,85.65
2018-09-15T02:34:03.259Z,85.82
2018-09-15T02:36:30.298Z,85.89
2018-09-15T02:38:57.271Z,86.09
2018-09-15T02:41:24.254Z,85.84
2018-09-15T02:43:51.261Z,85.92
2018-09-15T02:46:18.290Z,85.77
2018-09-15T02:48:45.600Z,86.04
2018-09-15T02:51:12.775Z,86.03
2018-09-15T02:53:40.254Z,86.06
2018-09-15T02:56:07.332Z,86.15
2018-09-15T02:58:34.299Z,86.20
2018-09-15T03:01:01.290Z,86.23
2018-09-15T03:03:28.287Z,86.49
2018-09-15T03:05:55.363Z,86.32
2018-09-15T03:08:22.396Z,86.62
2018-09-15T03:10:49.427Z,86.49
2018-09-15T03:13:16.506Z,86.61
2018-09-15T03:15:43.465Z,86.45
2018-09-15T03:18:10.727Z,86.43
2018-09-15T03:20:37.698Z,86.56
2018-09-15T03:23:04.787Z,86.48
2018-09-15T03:25:31.797Z,86.78
2018-09-15T03:27:58.766Z,86.97
2018-09-15T03:30:25.787Z,87.31
2018-09-15T03:32:52.771Z,87.19
2018-09-15T03:35:19.931Z,87.33
2018-09-15T03:37:47.435Z,87.80
2018-09-15T03:40:14.439Z,88.16
2018-09-15T03:42:41.479Z,88.53
2018-09-15T03:45:08.513Z,88.37
2018-09-15T03:47:35.595Z,88.75
2018-09-15T03:50:02.605Z,88.94
2018-09-15T03:52:29.652Z,89.31
2018-09-15T03:54:56.632Z,89.65
2018-09-15T03:57:23.691Z,89.88
2018-09-15T03:59:50.714Z,90.11
2018-09-15T04:02:17.719Z,90.15
2018-09-15T04:04:45.137Z,90.60
2018-09-15T04:07:12.110Z,90.77
2018-09-15T04:09:39.091Z,90.84
2018-09-15T04:12:07.143Z,90.60
2018-09-15T04:14:34.107Z,91.02
2018-09-15T04:17:01.083Z,90.97
2018-09-15T04:19:28.168Z,91.59
2018-09-15T04:21:55.156Z,91.50
2018-09-15T04:24:22.217Z,91.70
2018-09-15T04:26:49.668Z,91.79
2018-09-15T04:29:16.639Z,92.06
2018-09-15T04:31:43.603Z,92.16
2018-09-15T04:34:10.580Z,92.16
2018-09-15T04:36:37.551Z,92.17
2018-09-15T04:39:07.116Z,91.84
2018-09-15T04:41:34.578Z,91.86
2018-09-15T04:44:01.784Z,92.01
2018-09-15T04:46:28.880Z,91.99
2018-09-15T04:48:55.941Z,92.18
2018-09-15T04:51:22.922Z,91.90
2018-09-15T04:53:49.993Z,92.31
2018-09-15T04:56:16.981Z,92.16
2018-09-15T04:58:44.126Z,92.36
2018-09-15T05:01:10.987Z,92.32
2018-09-15T05:03:38.020Z,92.42
2018-09-15T05:06:05.003Z,92.69
2018-09-15T05:08:32.094Z,92.66
2018-09-15T05:10:59.245Z,92.53
2018-09-15T05:13:26.219Z,92.62
2018-09-15T05:15:53.228Z,92.62
2018-09-15T05:18:20.199Z,92.37
2018-09-15T05:20:47.165Z,92.48
2018-09-15T05:23:14.147Z,92.58
2018-09-15T05:25:41.124Z,92.55
2018-09-15T05:28:08.166Z,92.72
2018-09-15T05:30:35.256Z,93.02
2018-09-15T05:33:02.260Z,92.96
2018-09-15T05:35:29.336Z,93.41
2018-09-15T05:37:56.407Z,93.38
2018-09-15T05:40:23.399Z,93.37
2018-09-15T05:42:50.382Z,93.49
2018-09-15T05:45:17.360Z,93.92
2018-09-15T05:47:44.683Z,94.04
2018-09-15T05:50:11.742Z,93.96
2018-09-15T05:52:38.749Z,94.20
2018-09-15T05:55:06.141Z,94.03
2018-09-15T05:57:33.243Z,94.07
2018-09-15T06:00:00.237Z,94.20
2018-09-15T06:02:27.208Z,93.75
2018-09-15T06:04:54.632Z,94.04
2018-09-15T06:07:21.627Z,93.65
2018-09-15T06:09:48.675Z,93.97
2018-09-15T06:12:15.639Z,93.74
2018-09-15T06:14:43.973Z,93.78
2018-09-15T06:17:10.934Z,93.92
2018-09-15T06:19:38.064Z,93.83
2018-09-15T06:22:05.079Z,93.53
2018-09-15T06:24:32.131Z,93.11
2018-09-15T06:26:59.144Z,93.33
2018-09-15T06:29:26.204Z,93.43
2018-09-15T06:31:53.239Z,93.20
2018-09-15T06:34:20.206Z,93.14
2018-09-15T06:36:47.355Z,93.11
2018-09-15T06:39:14.356Z,93.27
2018-09-15T06:41:41.331Z,93.22
2018-09-15T06:44:08.424Z,93.17
2018-09-15T06:46:35.508Z,92.71
2018-09-15T06:49:02.795Z,92.39
2018-09-15T06:51:29.835Z,91.95
2018-09-15T06:53:57.550Z,92.09
2018-09-15T06:56:24.820Z,92.13
2018-09-15T06:58:51.789Z,91.63
2018-09-15T07:01:18.751Z,91.81
2018-09-15T07:03:45.727Z,91.90
2018-09-15T07:06:12.699Z,91.34
2018-09-15T07:08:39.734Z,91.32
2018-09-15T07:11:06.776Z,91.12
2018-09-15T07:13:33.921Z,90.61
2018-09-15T07:16:01.083Z,91.34
2018-09-15T07:18:28.056Z,91.78
2018-09-15T07:20:55.063Z,91.64
2018-09-15T07:23:22.691Z,91.42
2018-09-15T07:25:49.696Z,90.79
2018-09-15T07:28:16.756Z,90.29
2018-09-15T07:30:43.926Z,90.09
2018-09-15T07:33:10.908Z,90.11
2018-09-15T07:35:37.879Z,89.55
2018-09-15T07:38:04.916Z,89.29
2018-09-15T07:40:32.040Z,90.12
2018-09-15T07:42:59.599Z,89.18
2018-09-15T07:45:26.764Z,89.47
2018-09-15T07:47:53.735Z,88.96
2018-09-15T07:50:20.796Z,89.17
2018-09-15T07:52:47.979Z,88.99
2018-09-15T07:55:15.146Z,89.71
2018-09-15T07:57:42.227Z,89.93
2018-09-15T08:00:09.163Z,90.12
2018-09-15T08:02:36.359Z,89.55
2018-09-15T08:05:03.435Z,89.28
2018-09-15T08:07:30.412Z,89.01
2018-09-15T08:09:57.579Z,89.86
2018-09-15T08:12:24.887Z,89.76
2018-09-15T08:14:51.942Z,89.58
2018-09-15T08:17:18.945Z,90.40
2018-09-15T08:19:46.140Z,90.62
2018-09-15T08:22:13.107Z,90.50
2018-09-15T08:24:40.111Z,90.45
2018-09-15T08:27:07.647Z,90.06
2018-09-15T08:29:35.159Z,89.68
2018-09-15T08:32:02.816Z,88.96
2018-09-15T08:34:30.163Z,88.60
2018-09-15T08:36:57.193Z,87.55
2018-09-15T08:39:24.841Z,87.06
2018-09-15T08:41:58.679Z,87.11
2018-09-15T08:44:25.686Z,86.79
2018-09-15T08:46:52.674Z,86.75
2018-09-15T08:49:19.709Z,86.15
2018-09-15T08:51:46.943Z,87.33
2018-09-15T08:54:14.017Z,86.82
2018-09-15T08:56:41.017Z,86.53
2018-09-15T08:59:08.383Z,84.99
2018-09-15T09:01:35.465Z,84.62
2018-09-15T09:04:02.779Z,84.93
2018-09-15T09:06:29.769Z,83.41
2018-09-15T09:08:56.781Z,84.20
2018-09-15T09:11:24.252Z,83.96
2018-09-15T09:13:51.279Z,84.29
2018-09-15T09:16:18.273Z,83.81
2018-09-15T09:18:45.667Z,84.62
2018-09-15T09:21:12.643Z,83.63
2018-09-15T09:23:39.712Z,84.31
2018-09-15T09:26:06.718Z,84.43
2018-09-15T09:28:33.693Z,84.07
2018-09-15T09:31:01.033Z,83.67
2018-09-15T09:33:28.090Z,82.56
2018-09-15T09:35:55.420Z,82.32
2018-09-15T09:38:22.519Z,81.64
2018-09-15T09:40:49.614Z,81.31
2018-09-15T09:43:16.939Z,80.53
2018-09-15T09:45:43.934Z,80.66
2018-09-15T09:48:10.935Z,79.51
2018-09-15T09:50:38.267Z,79.96
2018-09-15T09:53:05.651Z,79.09
2018-09-15T09:55:32.654Z,78.62
2018-09-15T09:57:59.763Z,78.79
2018-09-15T10:00:32.606Z,78.96
2018-09-15T10:02:59.616Z,77.90
2018-09-15T10:05:26.612Z,78.00
2018-09-15T10:07:53.696Z,77.67
2018-09-15T10:10:20.990Z,77.57
2018-09-15T10:12:47.988Z,77.78
2018-09-15T10:15:14.991Z,77.78
2018-09-15T10:17:42.294Z,77.58
2018-09-15T10:20:09.303Z,76.97
2018-09-15T10:25:10.099Z,76.53
2018-09-15T10:27:37.076Z,74.21
2018-09-15T10:30:04.120Z,72.85
2018-09-15T10:32:31.119Z,71.53
2018-09-15T10:35:04.999Z,70.81
2018-09-15T10:37:32.897Z,71.13
2018-09-15T10:39:59.967Z,71.30
2018-09-15T10:42:27.079Z,69.59
2018-09-15T10:44:54.678Z,70.70
2018-09-15T10:47:21.787Z,71.89
2018-09-15T10:49:48.795Z,72.01
2018-09-15T10:52:15.903Z,71.78
2018-09-15T10:54:43.857Z,72.33
2018-09-15T10:57:10.891Z,73.21
2018-09-15T10:59:37.959Z,71.69
2018-09-15T11:02:05.091Z,69.75
2018-09-15T11:04:32.067Z,67.35
2018-09-15T11:06:59.060Z,67.53
2018-09-15T11:09:26.322Z,66.75
2018-09-15T11:11:53.319Z,67.84
2018-09-15T11:14:20.412Z,67.82
2018-09-15T11:16:47.500Z,66.33
2018-09-15T11:19:14.979Z,67.19
2018-09-15T11:21:42.222Z,68.88
2018-09-15T11:24:09.443Z,70.17
2018-09-15T11:26:36.525Z,72.54
2018-09-15T11:29:03.655Z,74.59
2018-09-15T11:31:30.567Z,77.22
2018-09-15T11:33:57.578Z,79.49
2018-09-15T11:36:24.536Z,80.99
2018-09-15T11:38:51.534Z,80.38
2018-09-15T11:41:18.706Z,81.39
2018-09-15T11:43:45.666Z,81.29
2018-09-15T11:46:12.605Z,82.46
2018-09-15T11:48:39.595Z,83.82
2018-09-15T11:51:06.943Z,84.26
2018-09-15T11:53:33.919Z,85.90
2018-09-15T11:56:00.897Z,86.13
2018-09-15T11:58:27.891Z,86.94
2018-09-15T12:00:57.951Z,85.43
2018-09-15T12:03:25.021Z,82.95
2018-09-15T12:05:52.008Z,83.42
2018-09-15T12:08:19.575Z,81.52
2018-09-15T12:10:46.648Z,81.91
2018-09-15T12:13:13.646Z,82.66
2018-09-15T12:15:41.129Z,82.11
2018-09-15T12:18:08.100Z,82.26
2018-09-15T12:20:35.283Z,79.89
2018-09-15T12:23:02.267Z,81.48
2018-09-15T12:25:29.327Z,80.12
2018-09-15T12:27:56.451Z,82.81
2018-09-15T12:30:23.439Z,81.82
2018-09-15T12:32:50.420Z,81.44
2018-09-15T12:35:17.512Z,80.87
2018-09-15T12:37:44.496Z,77.78
2018-09-15T12:40:11.665Z,79.90
2018-09-15T12:42:38.655Z,79.06
2018-09-15T12:45:05.862Z,79.56
2018-09-15T12:47:32.887Z,79.92
2018-09-15T12:49:59.867Z,79.66
2018-09-15T12:52:26.922Z,79.21
2018-09-15T12:54:53.871Z,79.14
2018-09-15T12:57:20.940Z,78.49
2018-09-15T12:59:48.188Z,79.25
2018-09-15T13:02:15.262Z,78.61
2018-09-15T13:04:42.345Z,79.22
2018-09-15T13:07:09.335Z,79.42
2018-09-15T13:09:36.448Z,79.85
2018-09-15T13:12:03.532Z,79.94
2018-09-15T13:14:30.512Z,80.27
2018-09-15T13:16:57.605Z,80.14
2018-09-15T13:19:24.820Z,79.27
2018-09-15T13:21:51.841Z,79.90
2018-09-15T13:24:18.889Z,80.14
2018-09-15T13:26:46.217Z,79.57
2018-09-15T13:29:13.292Z,78.85
2018-09-15T13:31:40.408Z,77.48
2018-09-15T13:34:07.532Z,77.99
2018-09-15T13:36:34.580Z,77.79
2018-09-15T13:39:01.655Z,77.06
2018-09-15T13:41:28.670Z,76.50
2018-09-15T13:43:55.664Z,76.78
2018-09-15T13:46:22.781Z,77.43
2018-09-15T13:48:49.924Z,77.39
2018-09-15T13:51:16.930Z,75.30
2018-09-15T13:53:44.011Z,74.19
2018-09-15T13:56:11.051Z,74.10
2018-09-15T13:58:38.060Z,73.36
2018-09-15T14:01:05.263Z,74.38
2018-09-15T14:03:32.550Z,75.01
2018-09-15T14:05:59.531Z,76.69
2018-09-15T14:08:26.525Z,76.85
2018-09-15T14:10:53.798Z,77.39
2018-09-15T14:13:20.803Z,77.35
2018-09-15T14:15:47.875Z,75.38
2018-09-15T14:18:14.961Z,75.63
2018-09-15T14:20:42.035Z,75.66
2018-09-15T14:23:09.083Z,76.02
2018-09-15T14:25:36.104Z,76.87
2018-09-15T14:28:03.211Z,75.22
2018-09-15T14:30:30.299Z,74.24
2018-09-15T14:32:57.640Z,74.92
2018-09-15T14:35:24.704Z,75.04
2018-09-15T14:37:51.713Z,77.46
2018-09-15T14:40:18.779Z,75.95
2018-09-15T14:42:45.859Z,76.84
2018-09-15T14:45:12.872Z,77.20
2018-09-15T14:47:39.947Z,76.29
2018-09-15T14:50:07.085Z,76.18
2018-09-15T14:52:34.083Z,77.17
2018-09-15T14:55:01.117Z,77.62
2018-09-15T14:57:28.198Z,77.94
2018-09-15T14:59:56.152Z,77.18
2018-09-15T15:02:23.159Z,76.89
2018-09-15T15:04:50.169Z,77.61
2018-09-15T15:07:17.644Z,77.45
2018-09-15T15:09:44.639Z,77.65
2018-09-15T15:12:11.634Z,77.42
2018-09-15T15:14:39.576Z,77.80
2018-09-15T15:17:07.451Z,76.21
2018-09-15T15:19:35.505Z,77.48
2018-09-15T15:22:02.507Z,77.87
2018-09-15T15:24:29.571Z,74.09
2018-09-15T15:26:56.664Z,73.62
2018-09-15T15:29:23.851Z,73.12
2018-09-15T15:31:50.919Z,69.94
2018-09-15T15:34:17.935Z,67.83
2018-09-15T15:36:44.931Z,67.45
2018-09-15T15:39:11.992Z,67.33
2018-09-15T15:41:39.027Z,66.13
2018-09-15T15:44:06.163Z,65.44
2018-09-15T15:46:33.150Z,67.69
2018-09-15T15:49:00.918Z,64.70
2018-09-15T15:51:28.014Z,67.22
2018-09-15T15:53:55.081Z,65.20
2018-09-15T15:56:22.157Z,64.77
2018-09-15T15:58:49.334Z,64.19
2018-09-15T16:01:16.332Z,66.12
2018-09-15T16:03:43.307Z,65.23
2018-09-15T16:06:10.309Z,63.17
2018-09-15T16:08:37.408Z,62.63
2018-09-15T16:11:04.491Z,62.54
2018-09-15T16:13:31.502Z,62.41
2018-09-15T16:15:58.552Z,63.73
2018-09-15T16:18:25.536Z,65.46
2018-09-15T16:20:52.542Z,64.78
2018-09-15T16:23:19.613Z,66.14
2018-09-15T16:25:46.686Z,64.27
2018-09-15T16:28:13.635Z,66.55
2018-09-15T16:30:40.705Z,67.59
2018-09-15T16:33:07.649Z,67.73
2018-09-15T16:35:34.779Z,69.32
2018-09-15T16:38:01.760Z,69.21
2018-09-15T16:40:28.892Z,71.85
2018-09-15T16:42:55.939Z,72.64
2018-09-15T16:45:23.395Z,71.03
2018-09-15T16:47:50.475Z,70.85
2018-09-15T16:50:17.603Z,72.12
2018-09-15T16:52:44.990Z,72.33
2018-09-15T16:55:12.151Z,71.35
2018-09-15T16:57:39.479Z,73.42
2018-09-15T17:00:06.475Z,74.73
2018-09-15T17:02:33.452Z,76.39
2018-09-15T17:05:00.450Z,76.74
2018-09-15T17:07:27.439Z,77.84
2018-09-15T17:09:54.521Z,77.17
2018-09-15T17:12:21.528Z,78.11
2018-09-15T17:14:48.735Z,77.53
2018-09-15T17:17:15.724Z,78.61
2018-09-15T17:19:42.859Z,77.69
2018-09-15T17:22:10.247Z,78.48
2018-09-15T17:24:37.639Z,78.29
2018-09-15T17:27:05.253Z,78.19
2018-09-15T17:29:32.400Z,77.96
2018-09-15T17:31:59.706Z,78.33
2018-09-15T17:34:26.719Z,78.54
2018-09-15T17:36:54.133Z,78.60
2018-09-15T17:39:21.343Z,78.52
2018-09-15T17:41:48.659Z,78.90
2018-09-15T17:44:15.631Z,79.10
2018-09-15T17:46:42.628Z,79.68
2018-09-15T17:49:09.608Z,79.45
2018-09-15T17:51:36.585Z,79.78
2018-09-15T17:54:03.724Z,80.79
2018-09-15T17:56:31.048Z,79.62
2018-09-15T17:58:58.327Z,79.36
2018-09-15T18:01:25.879Z,78.15
2018-09-15T18:03:53.177Z,79.08
2018-09-15T18:06:20.268Z,78.83
2018-09-15T18:08:47.599Z,79.15
2018-09-15T18:11:14.632Z,79.05
2018-09-15T18:13:41.714Z,78.87
2018-09-15T18:16:09.215Z,78.57
2018-09-15T18:18:36.264Z,78.92
2018-09-15T18:21:03.276Z,77.54
2018-09-15T18:23:30.261Z,77.93
2018-09-15T18:25:57.536Z,78.46
2018-09-15T18:28:24.606Z,77.89
2018-09-15T18:30:51.676Z,78.73
2018-09-15T18:33:19.015Z,78.89
2018-09-15T18:35:46.114Z,78.88
2018-09-15T18:38:13.128Z,78.61
2018-09-15T18:40:40.333Z,79.47
2018-09-15T18:43:07.385Z,79.52
2018-09-15T18:45:34.547Z,79.99
2018-09-15T18:48:01.515Z,79.61
2018-09-15T18:50:28.820Z,79.80
2018-09-15T18:52:55.984Z,80.90
2018-09-15T18:55:23.016Z,80.52
2018-09-15T18:57:50.860Z,80.32
2018-09-15T19:00:17.909Z,80.29
2018-09-15T19:02:45.845Z,81.08
2018-09-15T19:05:13.012Z,81.90
2018-09-15T19:07:40.480Z,81.90
2018-09-15T19:10:08.047Z,82.24
2018-09-15T19:12:35.089Z,82.50
2018-09-15T19:15:02.217Z,81.96
2018-09-15T19:17:29.320Z,81.87
2018-09-15T19:19:56.298Z,81.62
2018-09-15T19:22:24.261Z,81.42
2018-09-15T19:24:51.271Z,82.17
2018-09-15T19:27:18.272Z,83.04
2018-09-15T19:29:45.545Z,80.94
2018-09-15T19:32:13.331Z,82.74
2018-09-15T19:34:40.314Z,83.49
2018-09-15T19:37:07.923Z,83.90
2018-09-15T19:39:34.955Z,84.77
2018-09-15T19:42:01.996Z,85.20
2018-09-15T19:44:30.709Z,85.63
2018-09-15T19:46:59.181Z,86.14
2018-09-15T19:49:28.452Z,86.52
2018-09-15T19:51:57.918Z,86.49
2018-09-15T19:54:26.817Z,87.28
2018-09-15T19:56:55.814Z,87.66
2018-09-15T19:59:25.110Z,87.67
2018-09-15T20:01:53.795Z,88.15
2018-09-15T20:04:20.879Z,88.58
2018-09-15T20:06:47.963Z,88.78
2018-09-15T20:09:15.015Z,88.88
2018-09-15T20:11:42.142Z,88.70
2018-09-15T20:14:09.839Z,89.12
2018-09-15T20:16:35.929Z,89.38
2018-09-15T20:19:02.123Z,89.52
2018-09-15T20:21:28.162Z,89.41
2018-09-15T20:23:55.561Z,89.97
2018-09-15T20:26:22.551Z,89.85
2018-09-15T20:28:49.971Z,90.25
2018-09-15T20:31:17.022Z,90.57
2018-09-15T20:33:44.011Z,91.06
2018-09-15T20:36:11.408Z,91.32
2018-09-15T20:38:38.428Z,92.19
2018-09-15T20:41:05.738Z,91.58
2018-09-15T20:43:32.728Z,91.69
2018-09-15T20:45:59.741Z,92.38
2018-09-15T20:48:26.719Z,92.37
2018-09-15T20:50:53.864Z,93.18
2018-09-15T20:53:20.867Z,93.39
2018-09-15T20:55:47.859Z,93.46
2018-09-15T20:58:15.044Z,92.99
2018-09-15T21:00:42.035Z,92.51
2018-09-15T21:03:10.276Z,93.72
2018-09-15T21:05:37.401Z,93.62
2018-09-15T21:08:05.015Z,94.23
2018-09-15T21:10:32.140Z,95.23
2018-09-15T21:12:59.453Z,95.90
2018-09-15T21:15:26.452Z,96.11
2018-09-15T21:17:53.595Z,96.68
2018-09-15T21:20:23.845Z,96.80
2018-09-15T21:22:50.987Z,96.03
2018-09-15T21:25:18.201Z,96.02
2018-09-15T21:27:45.178Z,96.04
2018-09-15T21:30:12.155Z,95.99
2018-09-15T21:32:39.227Z,96.28
2018-09-15T21:35:06.311Z,97.27
2018-09-15T21:37:33.445Z,98.03
2018-09-15T21:40:00.381Z,98.13
2018-09-15T21:42:27.349Z,98.13
2018-09-15T21:44:54.459Z,98.56
2018-09-15T21:47:21.507Z,99.49
2018-09-15T21:49:48.511Z,99.77
2018-09-15T21:52:15.538Z,99.88
2018-09-15T21:54:42.517Z,99.97
2018-09-15T21:57:09.571Z,100.00
2018-09-15T21:59:36.593Z,100.00
2018-09-15T22:02:04.165Z,99.92
2018-09-15T22:04:35.256Z,99.74
2018-09-15T22:07:04.345Z,99.74
2018-09-15T22:09:32.623Z,100.00
2018-09-15T22:11:59.830Z,100.00
2018-09-15T22:14:27.222Z,100.00
2018-09-15T22:16:59.165Z,100.00
2018-09-15T22:19:28.501Z,100.00
2018-09-15T22:21:57.151Z,100.00
2018-09-15T22:24:25.435Z,100.00
2018-09-15T22:26:55.298Z,100.00
2018-09-15T22:29:23.272Z,100.00
2018-09-15T22:31:52.261Z,100.00
2018-09-15T22:34:22.338Z,100.00
2018-09-15T22:36:51.285Z,100.00
2018-09-15T22:39:24.192Z,100.00
2018-09-15T22:41:52.716Z,100.00
2018-09-15T22:44:19.808Z,100.00
2018-09-15T22:46:46.822Z,100.00
2018-09-15T22:49:14.673Z,100.00
2018-09-15T22:51:42.823Z,100.00
2018-09-15T22:54:12.377Z,100.00
2018-09-15T22:56:42.654Z,100.00
2018-09-15T22:59:09.643Z,100.00
2018-09-15T23:01:36.933Z,100.00
2018-09-15T23:04:06.856Z,100.00
2018-09-15T23:06:34.016Z,100.00
2018-09-15T23:09:01.122Z,100.00
2018-09-15T23:11:28.096Z,100.00
2018-09-15T23:13:55.151Z,100.00
2018-09-15T23:16:22.624Z,100.00
2018-09-15T23:18:49.638Z,100.00
2018-09-15T23:21:16.710Z,100.00
2018-09-15T23:23:43.708Z,100.00
2018-09-15T23:26:10.768Z,100.00
2018-09-15T23:28:37.734Z,100.00
2018-09-15T23:31:04.748Z,100.00
2018-09-15T23:33:31.795Z,100.00
2018-09-15T23:35:58.828Z,100.00
2018-09-15T23:38:25.891Z,100.00
2018-09-15T23:40:52.855Z,100.00
2018-09-15T23:43:19.857Z,100.00
2018-09-15T23:45:46.963Z,100.00
2018-09-15T23:48:14.024Z,100.00
2018-09-15T23:50:40.987Z,100.00
2018-09-15T23:53:08.201Z,100.00
2018-09-15T23:55:35.206Z,100.00
2018-09-15T23:58:02.217Z,100.00
